sensor_id;sensor_type;location;lat;lon;timestamp;P1;durP1;ratioP1;P2;durP2;ratioP2
6463;SDS011;3265;42.694;23.282;2022-08-26T00:00:29;18.88;;;5.47;;
6463;SDS011;3265;42.694;23.282;2022-08-26T00:02:56;17.83;;;5.80;;
6463;SDS011;3265;42.694;23.282;2022-08-26T00:05:25;16.63;;;5.25;;
6463;SDS011;3265;42.694;23.282;2022-08-26T00:07:52;26.77;;;5.75;;
6463;SDS011;3265;42.694;23.282;2022-08-26T00:10:19;20.65;;;5.53;;
6463;SDS011;3265;42.694;23.282;2022-08-26T00:12:46;28.25;;;5.43;;
6463;SDS011;3265;42.694;23.282;2022-08-26T00:15:14;22.50;;;6.43;;
6463;SDS011;3265;42.694;23.282;2022-08-26T00:17:44;26.48;;;5.88;;
6463;SDS011;3265;42.694;23.282;2022-08-26T00:20:16;22.75;;;5.93;;
6463;SDS011;3265;42.694;23.282;2022-08-26T00:23:28;27.05;;;6.40;;
6463;SDS011;3265;42.694;23.282;2022-08-26T00:26:01;18.95;;;5.90;;
6463;SDS011;3265;42.694;23.282;2022-08-26T00:28:39;18.30;;;6.20;;
6463;SDS011;3265;42.694;23.282;2022-08-26T00:31:07;23.20;;;6.10;;
6463;SDS011;3265;42.694;23.282;2022-08-26T00:33:33;25.02;;;6.22;;
6463;SDS011;3265;42.694;23.282;2022-08-26T00:36:00;29.95;;;5.32;;
6463;SDS011;3265;42.694;23.282;2022-08-26T00:38:29;27.42;;;5.72;;
6463;SDS011;3265;42.694;23.282;2022-08-26T00:40:56;19.20;;;5.80;;
6463;SDS011;3265;42.694;23.282;2022-08-26T00:43:23;17.70;;;5.82;;
6463;SDS011;3265;42.694;23.282;2022-08-26T00:45:51;19.05;;;5.68;;
6463;SDS011;3265;42.694;23.282;2022-08-26T00:48:24;19.42;;;5.45;;
6463;SDS011;3265;42.694;23.282;2022-08-26T00:50:54;17.08;;;5.38;;
6463;SDS011;3265;42.694;23.282;2022-08-26T00:53:29;25.70;;;6.00;;
6463;SDS011;3265;42.694;23.282;2022-08-26T00:56:00;28.50;;;6.13;;
6463;SDS011;3265;42.694;23.282;2022-08-26T00:58:32;22.58;;;6.40;;
6463;SDS011;3265;42.694;23.282;2022-08-26T01:01:02;24.17;;;6.03;;
6463;SDS011;3265;42.694;23.282;2022-08-26T01:03:30;23.83;;;6.18;;
6463;SDS011;3265;42.694;23.282;2022-08-26T01:05:58;23.02;;;5.82;;
6463;SDS011;3265;42.694;23.282;2022-08-26T01:08:29;30.88;;;6.13;;
6463;SDS011;3265;42.694;23.282;2022-08-26T01:10:56;21.83;;;6.20;;
6463;SDS011;3265;42.694;23.282;2022-08-26T01:13:25;28.85;;;5.93;;
6463;SDS011;3265;42.694;23.282;2022-08-26T01:15:54;23.77;;;6.40;;
6463;SDS011;3265;42.694;23.282;2022-08-26T01:18:24;25.60;;;6.03;;
6463;SDS011;3265;42.694;23.282;2022-08-26T01:20:53;19.88;;;5.82;;
6463;SDS011;3265;42.694;23.282;2022-08-26T01:23:27;28.02;;;6.03;;
6463;SDS011;3265;42.694;23.282;2022-08-26T01:25:58;24.15;;;6.05;;
6463;SDS011;3265;42.694;23.282;2022-08-26T01:28:28;26.77;;;6.03;;
6463;SDS011;3265;42.694;23.282;2022-08-26T01:30:59;21.33;;;6.03;;
6463;SDS011;3265;42.694;23.282;2022-08-26T01:33:31;22.50;;;5.63;;
6463;SDS011;3265;42.694;23.282;2022-08-26T01:36:04;27.45;;;6.03;;
6463;SDS011;3265;42.694;23.282;2022-08-26T01:38:33;24.38;;;6.05;;
6463;SDS011;3265;42.694;23.282;2022-08-26T01:41:00;22.90;;;5.85;;
6463;SDS011;3265;42.694;23.282;2022-08-26T01:43:28;25.35;;;5.50;;
6463;SDS011;3265;42.694;23.282;2022-08-26T01:45:58;32.88;;;5.85;;
6463;SDS011;3265;42.694;23.282;2022-08-26T01:48:28;26.60;;;6.20;;
6463;SDS011;3265;42.694;23.282;2022-08-26T01:50:57;22.08;;;5.80;;
6463;SDS011;3265;42.694;23.282;2022-08-26T01:53:25;23.70;;;5.55;;
6463;SDS011;3265;42.694;23.282;2022-08-26T01:55:54;27.25;;;5.88;;
6463;SDS011;3265;42.694;23.282;2022-08-26T01:58:25;22.95;;;6.03;;
6463;SDS011;3265;42.694;23.282;2022-08-26T02:00:57;22.08;;;6.05;;
6463;SDS011;3265;42.694;23.282;2022-08-26T02:03:25;26.00;;;6.25;;
6463;SDS011;3265;42.694;23.282;2022-08-26T02:05:53;22.40;;;5.97;;
6463;SDS011;3265;42.694;23.282;2022-08-26T02:08:22;19.27;;;6.45;;
6463;SDS011;3265;42.694;23.282;2022-08-26T02:10:54;23.30;;;6.05;;
6463;SDS011;3265;42.694;23.282;2022-08-26T02:13:22;24.85;;;6.43;;
6463;SDS011;3265;42.694;23.282;2022-08-26T02:15:51;22.08;;;5.97;;
6463;SDS011;3265;42.694;23.282;2022-08-26T02:18:19;34.75;;;6.35;;
6463;SDS011;3265;42.694;23.282;2022-08-26T02:20:47;23.00;;;6.18;;
6463;SDS011;3265;42.694;23.282;2022-08-26T02:23:14;20.65;;;5.80;;
6463;SDS011;3265;42.694;23.282;2022-08-26T02:25:43;21.77;;;6.05;;
6463;SDS011;3265;42.694;23.282;2022-08-26T02:28:16;30.58;;;6.95;;
6463;SDS011;3265;42.694;23.282;2022-08-26T02:30:43;24.80;;;6.25;;
6463;SDS011;3265;42.694;23.282;2022-08-26T02:33:11;23.15;;;6.10;;
6463;SDS011;3265;42.694;23.282;2022-08-26T02:35:38;26.95;;;6.68;;
6463;SDS011;3265;42.694;23.282;2022-08-26T02:38:06;34.67;;;6.78;;
6463;SDS011;3265;42.694;23.282;2022-08-26T02:40:35;20.38;;;5.80;;
6463;SDS011;3265;42.694;23.282;2022-08-26T02:43:05;24.17;;;6.75;;
6463;SDS011;3265;42.694;23.282;2022-08-26T02:45:33;24.48;;;6.50;;
6463;SDS011;3265;42.694;23.282;2022-08-26T02:48:02;29.77;;;5.82;;
6463;SDS011;3265;42.694;23.282;2022-08-26T02:50:35;23.35;;;6.22;;
6463;SDS011;3265;42.694;23.282;2022-08-26T02:53:02;22.23;;;5.82;;
6463;SDS011;3265;42.694;23.282;2022-08-26T02:55:29;19.48;;;5.97;;
6463;SDS011;3265;42.694;23.282;2022-08-26T02:57:59;35.60;;;6.47;;
6463;SDS011;3265;42.694;23.282;2022-08-26T03:00:26;31.60;;;6.65;;
6463;SDS011;3265;42.694;23.282;2022-08-26T03:02:55;32.58;;;6.53;;
6463;SDS011;3265;42.694;23.282;2022-08-26T03:05:23;33.65;;;5.82;;
6463;SDS011;3265;42.694;23.282;2022-08-26T03:07:50;28.33;;;6.10;;
6463;SDS011;3265;42.694;23.282;2022-08-26T03:10:17;20.08;;;6.32;;
6463;SDS011;3265;42.694;23.282;2022-08-26T03:12:46;21.00;;;5.82;;
6463;SDS011;3265;42.694;23.282;2022-08-26T03:15:14;28.48;;;6.15;;
6463;SDS011;3265;42.694;23.282;2022-08-26T03:17:42;24.23;;;5.68;;
6463;SDS011;3265;42.694;23.282;2022-08-26T03:20:11;28.10;;;5.70;;
6463;SDS011;3265;42.694;23.282;2022-08-26T03:22:38;32.20;;;7.07;;
6463;SDS011;3265;42.694;23.282;2022-08-26T03:25:07;31.85;;;7.30;;
6463;SDS011;3265;42.694;23.282;2022-08-26T03:27:35;34.58;;;6.53;;
6463;SDS011;3265;42.694;23.282;2022-08-26T03:30:03;21.98;;;6.57;;
6463;SDS011;3265;42.694;23.282;2022-08-26T03:32:48;45.08;;;7.80;;
6463;SDS011;3265;42.694;23.282;2022-08-26T03:35:17;30.87;;;6.13;;
6463;SDS011;3265;42.694;23.282;2022-08-26T03:37:44;31.90;;;6.70;;
6463;SDS011;3265;42.694;23.282;2022-08-26T03:40:10;30.52;;;6.60;;
6463;SDS011;3265;42.694;23.282;2022-08-26T03:42:38;29.45;;;5.93;;
6463;SDS011;3265;42.694;23.282;2022-08-26T03:45:06;29.02;;;6.18;;
6463;SDS011;3265;42.694;23.282;2022-08-26T03:47:36;30.95;;;6.78;;
6463;SDS011;3265;42.694;23.282;2022-08-26T03:50:03;20.98;;;6.32;;
6463;SDS011;3265;42.694;23.282;2022-08-26T03:52:32;28.27;;;7.38;;
6463;SDS011;3265;42.694;23.282;2022-08-26T03:54:58;27.20;;;6.82;;
6463;SDS011;3265;42.694;23.282;2022-08-26T03:57:25;32.28;;;6.57;;
6463;SDS011;3265;42.694;23.282;2022-08-26T03:59:52;27.50;;;7.18;;
6463;SDS011;3265;42.694;23.282;2022-08-26T04:02:19;28.80;;;7.53;;
6463;SDS011;3265;42.694;23.282;2022-08-26T04:04:46;38.35;;;6.60;;
6463;SDS011;3265;42.694;23.282;2022-08-26T04:07:13;28.15;;;6.35;;
6463;SDS011;3265;42.694;23.282;2022-08-26T04:09:41;24.80;;;6.60;;
6463;SDS011;3265;42.694;23.282;2022-08-26T04:12:08;21.40;;;6.43;;
6463;SDS011;3265;42.694;23.282;2022-08-26T04:14:35;47.08;;;7.05;;
6463;SDS011;3265;42.694;23.282;2022-08-26T04:17:03;43.72;;;7.55;;
6463;SDS011;3265;42.694;23.282;2022-08-26T04:19:30;41.03;;;7.72;;
6463;SDS011;3265;42.694;23.282;2022-08-26T04:21:57;38.15;;;7.47;;
6463;SDS011;3265;42.694;23.282;2022-08-26T04:24:25;31.50;;;7.28;;
6463;SDS011;3265;42.694;23.282;2022-08-26T04:26:54;29.38;;;7.35;;
6463;SDS011;3265;42.694;23.282;2022-08-26T04:29:22;38.28;;;8.07;;
6463;SDS011;3265;42.694;23.282;2022-08-26T04:31:51;37.35;;;7.63;;
6463;SDS011;3265;42.694;23.282;2022-08-26T04:34:20;38.58;;;8.93;;
6463;SDS011;3265;42.694;23.282;2022-08-26T04:36:47;33.72;;;8.32;;
6463;SDS011;3265;42.694;23.282;2022-08-26T04:39:14;31.30;;;8.05;;
6463;SDS011;3265;42.694;23.282;2022-08-26T04:41:42;25.83;;;7.18;;
6463;SDS011;3265;42.694;23.282;2022-08-26T04:44:10;29.55;;;7.45;;
6463;SDS011;3265;42.694;23.282;2022-08-26T04:46:37;36.97;;;7.63;;
6463;SDS011;3265;42.694;23.282;2022-08-26T04:49:07;27.88;;;7.35;;
6463;SDS011;3265;42.694;23.282;2022-08-26T04:51:35;39.05;;;7.75;;
6463;SDS011;3265;42.694;23.282;2022-08-26T04:54:03;27.00;;;7.07;;
6463;SDS011;3265;42.694;23.282;2022-08-26T04:56:32;37.15;;;7.82;;
6463;SDS011;3265;42.694;23.282;2022-08-26T04:59:01;28.70;;;8.23;;
6463;SDS011;3265;42.694;23.282;2022-08-26T05:01:32;37.35;;;7.82;;
6463;SDS011;3265;42.694;23.282;2022-08-26T05:04:00;29.55;;;7.90;;
6463;SDS011;3265;42.694;23.282;2022-08-26T05:06:27;38.75;;;8.30;;
6463;SDS011;3265;42.694;23.282;2022-08-26T05:08:54;48.22;;;8.90;;
6463;SDS011;3265;42.694;23.282;2022-08-26T05:11:21;41.08;;;9.20;;
6463;SDS011;3265;42.694;23.282;2022-08-26T05:13:48;43.63;;;8.85;;
6463;SDS011;3265;42.694;23.282;2022-08-26T05:16:15;36.38;;;9.63;;
6463;SDS011;3265;42.694;23.282;2022-08-26T05:18:44;37.83;;;8.57;;
6463;SDS011;3265;42.694;23.282;2022-08-26T05:21:15;43.58;;;9.35;;
6463;SDS011;3265;42.694;23.282;2022-08-26T05:23:44;45.35;;;8.40;;
6463;SDS011;3265;42.694;23.282;2022-08-26T05:26:11;35.30;;;8.25;;
6463;SDS011;3265;42.694;23.282;2022-08-26T05:28:38;30.80;;;8.55;;
6463;SDS011;3265;42.694;23.282;2022-08-26T05:31:12;35.85;;;8.93;;
6463;SDS011;3265;42.694;23.282;2022-08-26T05:33:40;38.53;;;9.27;;
6463;SDS011;3265;42.694;23.282;2022-08-26T05:36:09;29.27;;;8.52;;
6463;SDS011;3265;42.694;23.282;2022-08-26T05:38:39;35.08;;;8.02;;
6463;SDS011;3265;42.694;23.282;2022-08-26T05:41:12;36.05;;;8.88;;
6463;SDS011;3265;42.694;23.282;2022-08-26T05:43:40;33.40;;;8.45;;
6463;SDS011;3265;42.694;23.282;2022-08-26T05:46:07;36.33;;;8.32;;
6463;SDS011;3265;42.694;23.282;2022-08-26T05:48:34;41.38;;;7.80;;
6463;SDS011;3265;42.694;23.282;2022-08-26T05:51:02;28.33;;;7.97;;
6463;SDS011;3265;42.694;23.282;2022-08-26T05:53:32;31.10;;;8.80;;
6463;SDS011;3265;42.694;23.282;2022-08-26T05:55:59;41.97;;;7.70;;
6463;SDS011;3265;42.694;23.282;2022-08-26T05:58:28;38.35;;;8.88;;
6463;SDS011;3265;42.694;23.282;2022-08-26T06:00:56;28.55;;;8.45;;
6463;SDS011;3265;42.694;23.282;2022-08-26T06:03:25;36.72;;;8.70;;
6463;SDS011;3265;42.694;23.282;2022-08-26T06:05:53;30.85;;;8.40;;
6463;SDS011;3265;42.694;23.282;2022-08-26T06:08:20;34.33;;;8.68;;
6463;SDS011;3265;42.694;23.282;2022-08-26T06:10:49;37.85;;;7.85;;
6463;SDS011;3265;42.694;23.282;2022-08-26T06:13:19;30.42;;;7.13;;
6463;SDS011;3265;42.694;23.282;2022-08-26T06:15:48;40.03;;;7.85;;
6463;SDS011;3265;42.694;23.282;2022-08-26T06:18:17;24.27;;;7.90;;
6463;SDS011;3265;42.694;23.282;2022-08-26T06:20:46;29.30;;;7.13;;
6463;SDS011;3265;42.694;23.282;2022-08-26T06:23:14;33.47;;;8.25;;
6463;SDS011;3265;42.694;23.282;2022-08-26T06:26:00;31.98;;;7.82;;
6463;SDS011;3265;42.694;23.282;2022-08-26T06:28:28;27.85;;;7.80;;
6463;SDS011;3265;42.694;23.282;2022-08-26T06:30:55;36.92;;;7.90;;
6463;SDS011;3265;42.694;23.282;2022-08-26T06:33:22;20.75;;;6.80;;
6463;SDS011;3265;42.694;23.282;2022-08-26T06:35:50;28.38;;;7.40;;
6463;SDS011;3265;42.694;23.282;2022-08-26T06:38:17;30.60;;;7.63;;
6463;SDS011;3265;42.694;23.282;2022-08-26T06:40:45;34.83;;;7.70;;
6463;SDS011;3265;42.694;23.282;2022-08-26T06:43:15;31.77;;;7.05;;
6463;SDS011;3265;42.694;23.282;2022-08-26T06:45:43;30.33;;;7.45;;
6463;SDS011;3265;42.694;23.282;2022-08-26T06:48:11;26.73;;;6.97;;
6463;SDS011;3265;42.694;23.282;2022-08-26T06:50:39;31.10;;;7.57;;
6463;SDS011;3265;42.694;23.282;2022-08-26T06:53:07;37.03;;;6.75;;
6463;SDS011;3265;42.694;23.282;2022-08-26T06:55:37;29.73;;;6.72;;
6463;SDS011;3265;42.694;23.282;2022-08-26T06:58:05;31.63;;;6.75;;
6463;SDS011;3265;42.694;23.282;2022-08-26T07:00:33;29.45;;;6.78;;
6463;SDS011;3265;42.694;23.282;2022-08-26T07:03:00;23.60;;;6.70;;
6463;SDS011;3265;42.694;23.282;2022-08-26T07:05:27;21.45;;;6.50;;
6463;SDS011;3265;42.694;23.282;2022-08-26T07:07:54;25.63;;;6.93;;
6463;SDS011;3265;42.694;23.282;2022-08-26T07:10:22;26.27;;;6.38;;
6463;SDS011;3265;42.694;23.282;2022-08-26T07:12:49;25.90;;;6.68;;
6463;SDS011;3265;42.694;23.282;2022-08-26T07:15:16;17.95;;;6.40;;
6463;SDS011;3265;42.694;23.282;2022-08-26T07:17:45;28.65;;;6.22;;
6463;SDS011;3265;42.694;23.282;2022-08-26T07:20:12;26.83;;;6.20;;
6463;SDS011;3265;42.694;23.282;2022-08-26T07:22:38;32.78;;;6.55;;
6463;SDS011;3265;42.694;23.282;2022-08-26T07:25:06;19.10;;;6.88;;
6463;SDS011;3265;42.694;23.282;2022-08-26T07:27:34;24.40;;;5.70;;
6463;SDS011;3265;42.694;23.282;2022-08-26T07:30:02;25.50;;;6.53;;
6463;SDS011;3265;42.694;23.282;2022-08-26T07:32:30;26.88;;;7.00;;
6463;SDS011;3265;42.694;23.282;2022-08-26T07:34:58;20.15;;;6.53;;
6463;SDS011;3265;42.694;23.282;2022-08-26T07:37:25;27.02;;;6.70;;
6463;SDS011;3265;42.694;23.282;2022-08-26T07:39:53;29.40;;;6.55;;
6463;SDS011;3265;42.694;23.282;2022-08-26T07:42:19;24.60;;;6.50;;
6463;SDS011;3265;42.694;23.282;2022-08-26T07:44:47;20.23;;;6.57;;
6463;SDS011;3265;42.694;23.282;2022-08-26T07:47:14;27.98;;;7.22;;
6463;SDS011;3265;42.694;23.282;2022-08-26T07:49:41;30.50;;;6.45;;
6463;SDS011;3265;42.694;23.282;2022-08-26T07:52:10;24.08;;;6.80;;
6463;SDS011;3265;42.694;23.282;2022-08-26T07:54:37;26.33;;;6.90;;
6463;SDS011;3265;42.694;23.282;2022-08-26T07:57:04;26.83;;;6.70;;
6463;SDS011;3265;42.694;23.282;2022-08-26T07:59:31;27.40;;;6.88;;
6463;SDS011;3265;42.694;23.282;2022-08-26T08:01:58;24.92;;;6.18;;
6463;SDS011;3265;42.694;23.282;2022-08-26T08:04:25;41.72;;;7.45;;
6463;SDS011;3265;42.694;23.282;2022-08-26T08:06:53;27.42;;;7.30;;
6463;SDS011;3265;42.694;23.282;2022-08-26T08:09:22;29.80;;;7.40;;
6463;SDS011;3265;42.694;23.282;2022-08-26T08:11:49;44.33;;;7.70;;
6463;SDS011;3265;42.694;23.282;2022-08-26T08:14:16;38.25;;;7.35;;
6463;SDS011;3265;42.694;23.282;2022-08-26T08:16:44;23.55;;;7.18;;
6463;SDS011;3265;42.694;23.282;2022-08-26T08:19:11;28.58;;;7.88;;
6463;SDS011;3265;42.694;23.282;2022-08-26T08:21:38;31.35;;;7.25;;
6463;SDS011;3265;42.694;23.282;2022-08-26T08:24:05;24.60;;;6.20;;
6463;SDS011;3265;42.694;23.282;2022-08-26T08:26:35;27.98;;;7.28;;
6463;SDS011;3265;42.694;23.282;2022-08-26T08:29:02;32.50;;;6.72;;
6463;SDS011;3265;42.694;23.282;2022-08-26T08:31:30;28.95;;;6.65;;
6463;SDS011;3265;42.694;23.282;2022-08-26T08:33:58;34.58;;;7.53;;
6463;SDS011;3265;42.694;23.282;2022-08-26T08:36:25;33.05;;;6.75;;
6463;SDS011;3265;42.694;23.282;2022-08-26T08:38:52;26.63;;;7.32;;
6463;SDS011;3265;42.694;23.282;2022-08-26T08:41:22;24.52;;;6.50;;
6463;SDS011;3265;42.694;23.282;2022-08-26T08:44:09;25.27;;;6.22;;
6463;SDS011;3265;42.694;23.282;2022-08-26T08:46:42;29.00;;;6.18;;
6463;SDS011;3265;42.694;23.282;2022-08-26T08:49:10;25.42;;;5.97;;
6463;SDS011;3265;42.694;23.282;2022-08-26T08:51:41;19.13;;;6.13;;
6463;SDS011;3265;42.694;23.282;2022-08-26T08:54:13;20.30;;;6.07;;
6463;SDS011;3265;42.694;23.282;2022-08-26T08:56:41;21.23;;;6.22;;
6463;SDS011;3265;42.694;23.282;2022-08-26T08:59:16;38.65;;;6.43;;
6463;SDS011;3265;42.694;23.282;2022-08-26T09:01:48;27.52;;;5.80;;
6463;SDS011;3265;42.694;23.282;2022-08-26T09:04:28;31.73;;;5.97;;
6463;SDS011;3265;42.694;23.282;2022-08-26T09:07:06;28.83;;;6.60;;
6463;SDS011;3265;42.694;23.282;2022-08-26T09:09:43;37.85;;;6.20;;
6463;SDS011;3265;42.694;23.282;2022-08-26T09:12:13;24.52;;;5.95;;
6463;SDS011;3265;42.694;23.282;2022-08-26T09:14:48;22.38;;;5.82;;
6463;SDS011;3265;42.694;23.282;2022-08-26T09:17:16;19.67;;;5.78;;
6463;SDS011;3265;42.694;23.282;2022-08-26T09:19:52;36.50;;;7.28;;
6463;SDS011;3265;42.694;23.282;2022-08-26T09:22:27;26.13;;;5.35;;
6463;SDS011;3265;42.694;23.282;2022-08-26T09:24:56;28.67;;;5.47;;
6463;SDS011;3265;42.694;23.282;2022-08-26T09:30:08;21.60;;;5.90;;
6463;SDS011;3265;42.694;23.282;2022-08-26T09:32:38;31.13;;;5.45;;
6463;SDS011;3265;42.694;23.282;2022-08-26T09:35:06;19.20;;;5.45;;
6463;SDS011;3265;42.694;23.282;2022-08-26T09:37:36;20.88;;;5.25;;
6463;SDS011;3265;42.694;23.282;2022-08-26T09:43:07;24.48;;;5.03;;
6463;SDS011;3265;42.694;23.282;2022-08-26T09:45:41;18.42;;;5.18;;
6463;SDS011;3265;42.694;23.282;2022-08-26T09:48:10;17.08;;;6.03;;
6463;SDS011;3265;42.694;23.282;2022-08-26T09:50:51;24.67;;;5.40;;
6463;SDS011;3265;42.694;23.282;2022-08-26T09:53:20;17.52;;;5.57;;
6463;SDS011;3265;42.694;23.282;2022-08-26T09:55:50;17.63;;;5.28;;
6463;SDS011;3265;42.694;23.282;2022-08-26T09:58:36;17.40;;;5.35;;
6463;SDS011;3265;42.694;23.282;2022-08-26T10:01:05;9.25;;;4.10;;
6463;SDS011;3265;42.694;23.282;2022-08-26T10:03:36;8.40;;;3.70;;
6463;SDS011;3265;42.694;23.282;2022-08-26T10:06:05;17.15;;;5.55;;
6463;SDS011;3265;42.694;23.282;2022-08-26T10:08:45;17.60;;;5.32;;
6463;SDS011;3265;42.694;23.282;2022-08-26T10:11:16;15.75;;;4.78;;
6463;SDS011;3265;42.694;23.282;2022-08-26T10:13:48;28.50;;;5.93;;
6463;SDS011;3265;42.694;23.282;2022-08-26T10:16:22;11.85;;;4.82;;
6463;SDS011;3265;42.694;23.282;2022-08-26T10:18:54;11.05;;;4.35;;
6463;SDS011;3265;42.694;23.282;2022-08-26T10:21:26;17.15;;;5.28;;
6463;SDS011;3265;42.694;23.282;2022-08-26T10:23:58;13.70;;;5.43;;
6463;SDS011;3265;42.694;23.282;2022-08-26T10:26:30;12.05;;;5.03;;
6463;SDS011;3265;42.694;23.282;2022-08-26T10:29:07;20.35;;;5.43;;
6463;SDS011;3265;42.694;23.282;2022-08-26T10:31:41;11.75;;;5.57;;
6463;SDS011;3265;42.694;23.282;2022-08-26T10:34:12;14.23;;;5.32;;
6463;SDS011;3265;42.694;23.282;2022-08-26T10:36:40;13.32;;;5.32;;
6463;SDS011;3265;42.694;23.282;2022-08-26T10:39:17;14.95;;;4.90;;
6463;SDS011;3265;42.694;23.282;2022-08-26T10:41:49;16.73;;;6.05;;
6463;SDS011;3265;42.694;23.282;2022-08-26T10:44:21;17.13;;;6.05;;
6463;SDS011;3265;42.694;23.282;2022-08-26T10:46:52;26.58;;;6.22;;
6463;SDS011;3265;42.694;23.282;2022-08-26T10:49:23;23.45;;;5.95;;
6463;SDS011;3265;42.694;23.282;2022-08-26T10:51:52;14.93;;;5.60;;
6463;SDS011;3265;42.694;23.282;2022-08-26T10:54:28;17.23;;;6.20;;
6463;SDS011;3265;42.694;23.282;2022-08-26T10:57:01;12.45;;;5.90;;
6463;SDS011;3265;42.694;23.282;2022-08-26T10:59:38;16.65;;;5.88;;
6463;SDS011;3265;42.694;23.282;2022-08-26T11:02:17;23.02;;;6.05;;
6463;SDS011;3265;42.694;23.282;2022-08-26T11:04:50;17.08;;;6.35;;
6463;SDS011;3265;42.694;23.282;2022-08-26T11:07:30;16.27;;;6.10;;
6463;SDS011;3265;42.694;23.282;2022-08-26T11:10:03;11.93;;;5.75;;
6463;SDS011;3265;42.694;23.282;2022-08-26T11:12:45;17.67;;;6.45;;
6463;SDS011;3265;42.694;23.282;2022-08-26T11:18:40;22.33;;;6.25;;
6463;SDS011;3265;42.694;23.282;2022-08-26T11:27:06;16.83;;;5.43;;
6463;SDS011;3265;42.694;23.282;2022-08-26T11:38:19;17.00;;;6.35;;
6463;SDS011;3265;42.694;23.282;2022-08-26T11:40:56;16.58;;;6.00;;
6463;SDS011;3265;42.694;23.282;2022-08-26T11:43:31;10.77;;;5.97;;
6463;SDS011;3265;42.694;23.282;2022-08-26T11:46:01;9.68;;;5.47;;
6463;SDS011;3265;42.694;23.282;2022-08-26T11:48:31;17.33;;;6.57;;
6463;SDS011;3265;42.694;23.282;2022-08-26T11:51:02;17.92;;;7.38;;
6463;SDS011;3265;42.694;23.282;2022-08-26T11:53:32;11.60;;;6.38;;
6463;SDS011;3265;42.694;23.282;2022-08-26T11:56:04;15.10;;;6.40;;
6463;SDS011;3265;42.694;23.282;2022-08-26T11:58:34;11.52;;;5.40;;
6463;SDS011;3265;42.694;23.282;2022-08-26T12:01:07;8.85;;;5.45;;
6463;SDS011;3265;42.694;23.282;2022-08-26T12:03:38;15.68;;;5.03;;
6463;SDS011;3265;42.694;23.282;2022-08-26T12:06:14;9.27;;;5.00;;
6463;SDS011;3265;42.694;23.282;2022-08-26T12:08:53;14.48;;;5.10;;
6463;SDS011;3265;42.694;23.282;2022-08-26T12:11:23;9.60;;;5.05;;
6463;SDS011;3265;42.694;23.282;2022-08-26T12:13:52;15.77;;;4.85;;
6463;SDS011;3265;42.694;23.282;2022-08-26T12:16:22;15.60;;;4.82;;
6463;SDS011;3265;42.694;23.282;2022-08-26T12:18:50;14.73;;;4.97;;
6463;SDS011;3265;42.694;23.282;2022-08-26T12:21:20;11.50;;;4.72;;
6463;SDS011;3265;42.694;23.282;2022-08-26T12:23:50;17.00;;;5.00;;
6463;SDS011;3265;42.694;23.282;2022-08-26T12:26:20;15.25;;;4.43;;
6463;SDS011;3265;42.694;23.282;2022-08-26T12:28:50;15.38;;;4.72;;
6463;SDS011;3265;42.694;23.282;2022-08-26T12:31:21;10.95;;;4.18;;
6463;SDS011;3265;42.694;23.282;2022-08-26T12:33:51;15.90;;;3.97;;
6463;SDS011;3265;42.694;23.282;2022-08-26T12:36:21;13.93;;;4.80;;
6463;SDS011;3265;42.694;23.282;2022-08-26T12:38:52;18.45;;;4.40;;
6463;SDS011;3265;42.694;23.282;2022-08-26T12:44:06;23.23;;;5.13;;
6463;SDS011;3265;42.694;23.282;2022-08-26T12:46:33;12.80;;;4.85;;
6463;SDS011;3265;42.694;23.282;2022-08-26T12:49:00;11.50;;;4.32;;
6463;SDS011;3265;42.694;23.282;2022-08-26T12:51:30;15.73;;;4.53;;
6463;SDS011;3265;42.694;23.282;2022-08-26T12:53:58;21.42;;;4.65;;
6463;SDS011;3265;42.694;23.282;2022-08-26T12:56:33;15.77;;;4.53;;
6463;SDS011;3265;42.694;23.282;2022-08-26T12:59:06;14.65;;;4.60;;
6463;SDS011;3265;42.694;23.282;2022-08-26T13:01:44;14.10;;;4.85;;
6463;SDS011;3265;42.694;23.282;2022-08-26T13:07:17;15.70;;;4.25;;
6463;SDS011;3265;42.694;23.282;2022-08-26T13:09:49;14.48;;;3.97;;
6463;SDS011;3265;42.694;23.282;2022-08-26T13:12:25;13.07;;;4.30;;
6463;SDS011;3265;42.694;23.282;2022-08-26T13:14:54;18.67;;;4.30;;
6463;SDS011;3265;42.694;23.282;2022-08-26T13:17:23;18.38;;;4.40;;
6463;SDS011;3265;42.694;23.282;2022-08-26T13:19:49;13.88;;;4.60;;
6463;SDS011;3265;42.694;23.282;2022-08-26T13:22:18;13.32;;;4.60;;
6463;SDS011;3265;42.694;23.282;2022-08-26T13:24:48;13.30;;;4.63;;
6463;SDS011;3265;42.694;23.282;2022-08-26T13:27:18;11.90;;;4.22;;
6463;SDS011;3265;42.694;23.282;2022-08-26T13:29:50;12.70;;;3.97;;
6463;SDS011;3265;42.694;23.282;2022-08-26T13:32:21;12.05;;;4.30;;
6463;SDS011;3265;42.694;23.282;2022-08-26T13:34:48;16.33;;;4.28;;
6463;SDS011;3265;42.694;23.282;2022-08-26T13:37:17;10.38;;;4.35;;
6463;SDS011;3265;42.694;23.282;2022-08-26T13:39:46;25.40;;;4.60;;
6463;SDS011;3265;42.694;23.282;2022-08-26T13:42:13;12.50;;;4.63;;
6463;SDS011;3265;42.694;23.282;2022-08-26T13:44:40;13.27;;;4.35;;
6463;SDS011;3265;42.694;23.282;2022-08-26T13:47:08;13.82;;;4.43;;
6463;SDS011;3265;42.694;23.282;2022-08-26T13:49:35;21.73;;;3.90;;
6463;SDS011;3265;42.694;23.282;2022-08-26T13:52:02;12.88;;;4.32;;
6463;SDS011;3265;42.694;23.282;2022-08-26T13:54:31;14.48;;;3.65;;
6463;SDS011;3265;42.694;23.282;2022-08-26T13:56:57;15.10;;;4.30;;
6463;SDS011;3265;42.694;23.282;2022-08-26T13:59:24;12.73;;;3.80;;
6463;SDS011;3265;42.694;23.282;2022-08-26T14:01:51;13.88;;;4.07;;
6463;SDS011;3265;42.694;23.282;2022-08-26T14:04:18;14.60;;;4.03;;
6463;SDS011;3265;42.694;23.282;2022-08-26T14:06:45;19.48;;;4.18;;
6463;SDS011;3265;42.694;23.282;2022-08-26T14:09:12;11.68;;;3.85;;
6463;SDS011;3265;42.694;23.282;2022-08-26T14:11:40;14.30;;;3.47;;
6463;SDS011;3265;42.694;23.282;2022-08-26T14:14:07;16.35;;;4.32;;
6463;SDS011;3265;42.694;23.282;2022-08-26T14:16:34;15.30;;;4.32;;
6463;SDS011;3265;42.694;23.282;2022-08-26T14:19:04;17.85;;;3.85;;
6463;SDS011;3265;42.694;23.282;2022-08-26T14:21:34;16.30;;;4.50;;
6463;SDS011;3265;42.694;23.282;2022-08-26T14:24:02;14.23;;;3.83;;
6463;SDS011;3265;42.694;23.282;2022-08-26T14:26:30;9.25;;;3.83;;
6463;SDS011;3265;42.694;23.282;2022-08-26T14:28:58;14.40;;;3.78;;
6463;SDS011;3265;42.694;23.282;2022-08-26T14:31:27;14.23;;;3.90;;
6463;SDS011;3265;42.694;23.282;2022-08-26T14:33:56;18.45;;;3.72;;
6463;SDS011;3265;42.694;23.282;2022-08-26T14:36:24;12.95;;;3.95;;
6463;SDS011;3265;42.694;23.282;2022-08-26T14:38:56;12.10;;;4.18;;
6463;SDS011;3265;42.694;23.282;2022-08-26T14:41:26;12.80;;;4.30;;
6463;SDS011;3265;42.694;23.282;2022-08-26T14:43:55;13.23;;;3.75;;
6463;SDS011;3265;42.694;23.282;2022-08-26T14:46:26;20.55;;;4.57;;
6463;SDS011;3265;42.694;23.282;2022-08-26T14:48:55;11.27;;;4.13;;
6463;SDS011;3265;42.694;23.282;2022-08-26T14:51:22;14.25;;;4.55;;
6463;SDS011;3265;42.694;23.282;2022-08-26T14:53:49;11.32;;;3.97;;
6463;SDS011;3265;42.694;23.282;2022-08-26T14:56:34;19.90;;;4.32;;
6463;SDS011;3265;42.694;23.282;2022-08-26T14:59:03;9.98;;;4.30;;
6463;SDS011;3265;42.694;23.282;2022-08-26T15:01:32;14.52;;;4.38;;
6463;SDS011;3265;42.694;23.282;2022-08-26T15:03:59;17.35;;;4.10;;
6463;SDS011;3265;42.694;23.282;2022-08-26T15:06:27;12.18;;;4.28;;
6463;SDS011;3265;42.694;23.282;2022-08-26T15:08:55;17.65;;;4.53;;
6463;SDS011;3265;42.694;23.282;2022-08-26T15:11:22;11.75;;;4.35;;
6463;SDS011;3265;42.694;23.282;2022-08-26T15:13:49;11.07;;;4.28;;
6463;SDS011;3265;42.694;23.282;2022-08-26T15:16:17;14.13;;;4.30;;
6463;SDS011;3265;42.694;23.282;2022-08-26T15:18:45;12.30;;;4.43;;
6463;SDS011;3265;42.694;23.282;2022-08-26T15:21:12;15.93;;;3.90;;
6463;SDS011;3265;42.694;23.282;2022-08-26T15:23:39;10.75;;;4.00;;
6463;SDS011;3265;42.694;23.282;2022-08-26T15:26:07;14.82;;;3.75;;
6463;SDS011;3265;42.694;23.282;2022-08-26T15:28:35;11.25;;;3.53;;
6463;SDS011;3265;42.694;23.282;2022-08-26T15:31:02;15.50;;;4.22;;